createdAt,value
2022-10-08T00:01:32.001Z,11.9
2022-10-08T00:11:32.728Z,11.9
2022-10-08T00:21:33.567Z,11.8
2022-10-08T00:31:34.290Z,11.8
2022-10-08T00:41:34.702Z,11.8
2022-10-08T00:51:35.451Z,11.7
2022-10-08T01:01:35.965Z,11.8
2022-10-08T01:11:36.360Z,11.8
2022-10-08T01:21:37.231Z,11.7
2022-10-08T01:31:37.550Z,11.8
2022-10-08T01:41:37.603Z,11.7
2022-10-08T01:51:38.070Z,11.8
2022-10-08T02:01:38.974Z,11.6
2022-10-08T02:11:39.270Z,11.7
2022-10-08T02:21:39.372Z,11.9
2022-10-08T02:31:40.128Z,12
2022-10-08T02:41:41.074Z,12.1
2022-10-08T02:51:41.859Z,12.2
2022-10-08T03:11:42.901Z,12.4
2022-10-08T03:21:43.306Z,12.2
2022-10-08T03:31:43.674Z,11.7
2022-10-08T03:41:43.968Z,11.5
2022-10-08T03:51:44.673Z,11.1
2022-10-08T04:01:45.414Z,10.8
2022-10-08T04:11:45.509Z,10.7
2022-10-08T04:21:46.475Z,10.6
2022-10-08T04:31:47.477Z,10.6
2022-10-08T04:41:47.592Z,10.6
2022-10-08T04:51:47.821Z,10.5
2022-10-08T05:01:48.459Z,10.6
2022-10-08T05:11:48.655Z,10.6
2022-10-08T05:21:49.489Z,10.6
2022-10-08T05:31:49.864Z,10.6
2022-10-08T05:41:50.507Z,10.7
2022-10-08T05:51:51.541Z,10.7
2022-10-08T06:01:51.869Z,10.7
2022-10-08T06:11:51.956Z,10.7
2022-10-08T07:01:54.828Z,11
2022-10-08T07:51:58.762Z,11.5
2022-10-08T08:01:59.518Z,11.6
2022-10-08T08:12:00.282Z,11.8
2022-10-08T08:22:00.906Z,11.8
2022-10-08T08:32:01.823Z,12
2022-10-08T08:42:02.572Z,11.9
2022-10-08T08:52:02.649Z,12.2
2022-10-08T09:02:02.799Z,12.4
2022-10-08T09:12:03.286Z,12.7
2022-10-08T09:22:04.050Z,13.1
2022-10-08T09:42:05.462Z,14.3
2022-10-08T09:42:10.771Z,14.3
2022-10-08T10:02:11.676Z,14.4
2022-10-08T10:12:12.247Z,15.6
2022-10-08T10:22:12.835Z,15.1
2022-10-08T10:32:14.658Z,14.4
2022-10-08T10:42:13.742Z,14.1
2022-10-08T10:52:13.794Z,16.1
2022-10-08T11:02:13.976Z,15.5
2022-10-08T11:12:14.288Z,13.8
2022-10-08T11:22:14.544Z,13.3
2022-10-08T11:32:14.921Z,13.6
2022-10-08T11:42:15.569Z,14.4
2022-10-08T11:52:15.790Z,13.5
2022-10-08T12:02:15.984Z,14.7
2022-10-08T12:12:16.039Z,16.4
2022-10-08T12:22:16.902Z,16.8
2022-10-08T12:32:17.258Z,17.3
2022-10-08T12:42:17.419Z,16.4
2022-10-08T12:52:18.208Z,16.2
2022-10-08T13:02:18.341Z,16.7
2022-10-08T13:12:18.461Z,16.2
2022-10-08T13:22:18.556Z,15.3
2022-10-08T13:32:19.114Z,14.6
2022-10-08T13:42:19.255Z,14.3
2022-10-08T13:52:19.627Z,14.5
2022-10-08T14:02:20.228Z,15
2022-10-08T14:12:20.698Z,15.2
2022-10-08T14:22:20.863Z,15.2
2022-10-08T14:32:21.516Z,15
2022-10-08T14:42:22.258Z,15.1
2022-10-08T14:52:22.395Z,15.7
2022-10-08T15:02:23.085Z,15.6
2022-10-08T15:12:23.759Z,15.5
2022-10-08T15:22:24.753Z,15.3
2022-10-08T15:42:25.162Z,15.3
2022-10-08T15:52:25.942Z,15
2022-10-08T16:02:26.449Z,14.7
2022-10-08T16:12:27.295Z,14.5
2022-10-08T16:22:27.893Z,14.3
2022-10-08T16:32:28.417Z,14
2022-10-08T16:52:29.102Z,13.5
2022-10-08T17:02:29.310Z,13.1
2022-10-08T17:12:30.054Z,12.9
2022-10-08T17:22:30.808Z,12.7
2022-10-08T17:32:31.753Z,12.4
2022-10-08T17:42:32.201Z,12.1
2022-10-08T17:52:32.664Z,11.8
2022-10-08T18:02:32.881Z,11.3
2022-10-08T18:12:33.303Z,11
2022-10-08T18:22:33.346Z,10.8
2022-10-08T18:32:33.870Z,10.6
2022-10-08T18:42:34.754Z,10.4
2022-10-08T18:52:35.421Z,10.2
2022-10-08T19:02:36.594Z,10.1
2022-10-08T19:12:36.508Z,9.9
2022-10-08T19:22:36.832Z,9.7
2022-10-08T19:32:36.980Z,9.4
2022-10-08T19:42:37.159Z,9.2
2022-10-08T19:52:37.896Z,9.2
2022-10-08T20:02:38.626Z,9.2
2022-10-08T20:12:38.861Z,9.2
2022-10-08T20:22:38.971Z,9.1
2022-10-08T20:32:39.665Z,9.1
2022-10-08T20:42:40.481Z,8.8
2022-10-08T20:52:41.043Z,8.5
2022-10-08T21:02:41.480Z,8.4
2022-10-08T21:12:42.211Z,8.4
2022-10-08T21:22:42.631Z,8.3
2022-10-08T21:32:42.984Z,8.3
2022-10-08T21:52:43.937Z,8.1
2022-10-08T22:32:46.818Z,7.8
2022-10-08T22:42:47.586Z,7.7
2022-10-08T22:52:48.149Z,7.7
2022-10-08T23:02:48.662Z,7.7
2022-10-08T23:12:48.939Z,7.7
2022-10-08T23:22:49.473Z,7.7
2022-10-08T23:32:49.428Z,7.7
2022-10-08T23:42:50.221Z,7.6
2022-10-08T23:52:50.282Z,7.5
